sensor_id;sensor_type;location;lat;lon;timestamp;pressure;altitude;pressure_sealevel;temperature;humidity
63654;BME280;49809;47.418;19.080;2024-03-08T00:01:34;100877.50;;;4.12;100.00
63654;BME280;49809;47.418;19.080;2024-03-08T00:04:46;100866.78;;;4.07;100.00
63654;BME280;49809;47.418;19.080;2024-03-08T00:07:53;100866.59;;;4.02;100.00
63654;BME280;49809;47.418;19.080;2024-03-08T00:11:01;100862.81;;;4.11;100.00
63654;BME280;49809;47.418;19.080;2024-03-08T00:14:07;100867.25;;;4.17;100.00
63654;BME280;49809;47.418;19.080;2024-03-08T00:17:17;100872.47;;;4.17;100.00
63654;BME280;49809;47.418;19.080;2024-03-08T00:20:20;100870.25;;;4.14;100.00
63654;BME280;49809;47.418;19.080;2024-03-08T00:23:29;100870.44;;;4.12;100.00
63654;BME280;49809;47.418;19.080;2024-03-08T00:26:33;100864.41;;;4.12;100.00
63654;BME280;49809;47.418;19.080;2024-03-08T00:29:40;100860.78;;;4.13;100.00
63654;BME280;49809;47.418;19.080;2024-03-08T00:32:46;100863.97;;;4.08;100.00
63654;BME280;49809;47.418;19.080;2024-03-08T00:35:52;100862.41;;;4.14;100.00
63654;BME280;49809;47.418;19.080;2024-03-08T00:38:57;100862.81;;;4.11;100.00
63654;BME280;49809;47.418;19.080;2024-03-08T00:42:04;100863.81;;;4.10;100.00
63654;BME280;49809;47.418;19.080;2024-03-08T00:45:09;100857.78;;;4.16;100.00
63654;BME280;49809;47.418;19.080;2024-03-08T00:48:15;100855.56;;;4.19;100.00
63654;BME280;49809;47.418;19.080;2024-03-08T00:51:21;100857.59;;;4.24;100.00
63654;BME280;49809;47.418;19.080;2024-03-08T00:54:25;100848.13;;;4.23;100.00
63654;BME280;49809;47.418;19.080;2024-03-08T00:57:50;100855.62;;;4.26;100.00
63654;BME280;49809;47.418;19.080;2024-03-08T01:00:55;100851.16;;;4.26;100.00
63654;BME280;49809;47.418;19.080;2024-03-08T01:04:01;100852.78;;;4.27;100.00
63654;BME280;49809;47.418;19.080;2024-03-08T01:07:44;100843.09;;;4.28;100.00
63654;BME280;49809;47.418;19.080;2024-03-08T01:10:49;100849.19;;;4.42;100.00
63654;BME280;49809;47.418;19.080;2024-03-08T01:14:13;100845.75;;;4.41;100.00
63654;BME280;49809;47.418;19.080;2024-03-08T01:17:56;100843.94;;;4.35;100.00
63654;BME280;49809;47.418;19.080;2024-03-08T01:21:22;100838.28;;;4.38;100.00
63654;BME280;49809;47.418;19.080;2024-03-08T01:24:46;100843.94;;;4.42;100.00
63654;BME280;49809;47.418;19.080;2024-03-08T01:27:52;100837.50;;;4.44;100.00
63654;BME280;49809;47.418;19.080;2024-03-08T01:30:56;100841.13;;;4.43;100.00
63654;BME280;49809;47.418;19.080;2024-03-08T01:34:06;100844.16;;;4.40;100.00
63654;BME280;49809;47.418;19.080;2024-03-08T01:37:30;100849.41;;;4.40;100.00
63654;BME280;49809;47.418;19.080;2024-03-08T01:40:33;100845.16;;;4.39;100.00
63654;BME280;49809;47.418;19.080;2024-03-08T01:43:37;100842.72;;;4.37;100.00
63654;BME280;49809;47.418;19.080;2024-03-08T01:46:44;100838.69;;;4.35;100.00
63654;BME280;49809;47.418;19.080;2024-03-08T01:50:09;100847.94;;;4.31;100.00
63654;BME280;49809;47.418;19.080;2024-03-08T01:53:34;100841.88;;;4.24;100.00
63654;BME280;49809;47.418;19.080;2024-03-08T01:56:42;100836.69;;;4.30;100.00
63654;BME280;49809;47.418;19.080;2024-03-08T02:00:06;100838.72;;;4.48;100.00
63654;BME280;49809;47.418;19.080;2024-03-08T02:03:33;100843.72;;;4.30;100.00
63654;BME280;49809;47.418;19.080;2024-03-08T02:06:47;100837.28;;;4.26;100.00
63654;BME280;49809;47.418;19.080;2024-03-08T02:09:59;100836.09;;;4.42;100.00
63654;BME280;49809;47.418;19.080;2024-03-08T02:13:23;100836.28;;;4.33;100.00
63654;BME280;49809;47.418;19.080;2024-03-08T02:17:11;100841.53;;;4.40;100.00
63654;BME280;49809;47.418;19.080;2024-03-08T02:20:15;100847.56;;;4.34;100.00
63654;BME280;49809;47.418;19.080;2024-03-08T02:23:23;100847.16;;;4.37;100.00
63654;BME280;49809;47.418;19.080;2024-03-08T02:26:52;100850.00;;;4.35;100.00
63654;BME280;49809;47.418;19.080;2024-03-08T02:30:17;100845.97;;;4.46;100.00
63654;BME280;49809;47.418;19.080;2024-03-08T02:33:22;100849.41;;;4.40;100.00
63654;BME280;49809;47.418;19.080;2024-03-08T02:36:27;100843.09;;;4.28;100.00
63654;BME280;49809;47.418;19.080;2024-03-08T02:39:53;100845.12;;;4.26;100.00
63654;BME280;49809;47.418;19.080;2024-03-08T02:43:02;100845.91;;;4.26;100.00
63654;BME280;49809;47.418;19.080;2024-03-08T02:46:27;100844.69;;;4.22;100.00
63654;BME280;49809;47.418;19.080;2024-03-08T02:49:34;100852.09;;;4.12;100.00
63654;BME280;49809;47.418;19.080;2024-03-08T02:52:45;100844.28;;;4.19;100.00
63654;BME280;49809;47.418;19.080;2024-03-08T02:56:28;100850.75;;;4.16;100.00
63654;BME280;49809;47.418;19.080;2024-03-08T02:59:55;100848.53;;;4.20;100.00
63654;BME280;49809;47.418;19.080;2024-03-08T03:03:02;100844.31;;;4.25;100.00
63654;BME280;49809;47.418;19.080;2024-03-08T03:06:26;100846.72;;;4.20;100.00
63654;BME280;49809;47.418;19.080;2024-03-08T03:09:35;100850.94;;;4.15;100.00
63654;BME280;49809;47.418;19.080;2024-03-08T03:12:58;100848.16;;;4.29;100.00
63654;BME280;49809;47.418;19.080;2024-03-08T03:16:24;100856.16;;;4.15;100.00
63654;BME280;49809;47.418;19.080;2024-03-08T03:19:32;100853.91;;;4.12;100.00
63654;BME280;49809;47.418;19.080;2024-03-08T03:22:39;100856.53;;;4.12;100.00
63654;BME280;49809;47.418;19.080;2024-03-08T03:26:22;100854.72;;;4.12;100.00
63654;BME280;49809;47.418;19.080;2024-03-08T03:29:52;100857.34;;;4.12;100.00
63654;BME280;49809;47.418;19.080;2024-03-08T03:32:54;100856.59;;;4.25;100.00
63654;BME280;49809;47.418;19.080;2024-03-08T03:36:04;100858.81;;;4.28;100.00
63654;BME280;49809;47.418;19.080;2024-03-08T03:39:31;100855.25;;;4.35;100.00
63654;BME280;49809;47.418;19.080;2024-03-08T03:42:36;100857.78;;;4.16;100.00
63654;BME280;49809;47.418;19.080;2024-03-08T03:45:41;100860.00;;;4.19;100.00
63654;BME280;49809;47.418;19.080;2024-03-08T03:48:46;100858.78;;;4.15;100.00
63654;BME280;49809;47.418;19.080;2024-03-08T03:51:51;100867.09;;;4.25;100.00
63654;BME280;49809;47.418;19.080;2024-03-08T03:55:05;100865.66;;;4.16;100.00
63654;BME280;49809;47.418;19.080;2024-03-08T03:58:29;100868.41;;;4.08;100.00
63654;BME280;49809;47.418;19.080;2024-03-08T04:01:34;100861.53;;;4.07;100.00
63654;BME280;49809;47.418;19.080;2024-03-08T04:05:35;100869.03;;;4.10;100.00
63654;BME280;49809;47.418;19.080;2024-03-08T04:08:40;100863.97;;;4.02;100.00
63654;BME280;49809;47.418;19.080;2024-03-08T04:11:48;100860.09;;;3.98;100.00
63654;BME280;49809;47.418;19.080;2024-03-08T04:14:55;100866.03;;;4.13;100.00
63654;BME280;49809;47.418;19.080;2024-03-08T04:18:01;100864.03;;;4.15;100.00
63654;BME280;49809;47.418;19.080;2024-03-08T04:21:09;100857.56;;;4.11;100.00
63654;BME280;49809;47.418;19.080;2024-03-08T04:24:12;100862.12;;;3.96;100.00
63654;BME280;49809;47.418;19.080;2024-03-08T04:27:16;100863.69;;;3.90;100.00
63654;BME280;49809;47.418;19.080;2024-03-08T04:30:22;100867.41;;;4.09;100.00
63654;BME280;49809;47.418;19.080;2024-03-08T04:33:27;100868.19;;;4.03;100.00
63654;BME280;49809;47.418;19.080;2024-03-08T04:36:52;100866.41;;;4.10;100.00
63654;BME280;49809;47.418;19.080;2024-03-08T04:39:55;100864.75;;;3.96;100.00
63654;BME280;49809;47.418;19.080;2024-03-08T04:43:01;100869.16;;;3.95;100.00
63654;BME280;49809;47.418;19.080;2024-03-08T04:46:04;100864.97;;;4.01;100.00
63654;BME280;49809;47.418;19.080;2024-03-08T04:49:09;100874.81;;;3.99;100.00
63654;BME280;49809;47.418;19.080;2024-03-08T04:52:36;100877.66;;;4.04;100.00
63654;BME280;49809;47.418;19.080;2024-03-08T04:56:08;100874.22;;;3.97;100.00
63654;BME280;49809;47.418;19.080;2024-03-08T04:59:13;100880.06;;;3.99;100.00
63654;BME280;49809;47.418;19.080;2024-03-08T05:02:17;100868.41;;;4.01;100.00
63654;BME280;49809;47.418;19.080;2024-03-08T05:05:21;100873.81;;;4.00;100.00
63654;BME280;49809;47.418;19.080;2024-03-08T05:08:29;100875.62;;;3.99;100.00
63654;BME280;49809;47.418;19.080;2024-03-08T05:11:32;100877.78;;;3.82;100.00
63654;BME280;49809;47.418;19.080;2024-03-08T05:14:35;100881.63;;;3.93;100.00
63654;BME280;49809;47.418;19.080;2024-03-08T05:17:38;100878.41;;;3.91;100.00
63654;BME280;49809;47.418;19.080;2024-03-08T05:20:43;100878.78;;;3.88;100.00
63654;BME280;49809;47.418;19.080;2024-03-08T05:24:07;100877.37;;;3.85;100.00
63654;BME280;49809;47.418;19.080;2024-03-08T05:27:11;100882.00;;;3.83;100.00
63654;BME280;49809;47.418;19.080;2024-03-08T05:30:20;100883.44;;;3.92;100.00
63654;BME280;49809;47.418;19.080;2024-03-08T05:33:25;100881.44;;;3.94;100.00
63654;BME280;49809;47.418;19.080;2024-03-08T05:36:28;100890.28;;;3.87;100.00
63654;BME280;49809;47.418;19.080;2024-03-08T05:39:36;100891.75;;;3.96;100.00
63654;BME280;49809;47.418;19.080;2024-03-08T05:42:45;100892.94;;;3.93;100.00
63654;BME280;49809;47.418;19.080;2024-03-08T05:45:49;100889.31;;;3.94;100.00
63654;BME280;49809;47.418;19.080;2024-03-08T05:48:56;100893.91;;;3.92;100.00
63654;BME280;49809;47.418;19.080;2024-03-08T05:52:20;100903.47;;;4.07;100.00
63654;BME280;49809;47.418;19.080;2024-03-08T05:55:23;100903.69;;;4.05;100.00
63654;BME280;49809;47.418;19.080;2024-03-08T05:58:28;100913.50;;;3.97;100.00
63654;BME280;49809;47.418;19.080;2024-03-08T06:01:54;100911.87;;;3.96;100.00
63654;BME280;49809;47.418;19.080;2024-03-08T06:04:58;100914.09;;;3.92;100.00
63654;BME280;49809;47.418;19.080;2024-03-08T06:08:01;100915.16;;;4.04;100.00
63654;BME280;49809;47.418;19.080;2024-03-08T06:11:13;100912.19;;;4.14;100.00
63654;BME280;49809;47.418;19.080;2024-03-08T06:14:17;100911.94;;;4.09;100.00
63654;BME280;49809;47.418;19.080;2024-03-08T06:17:21;100916.84;;;4.18;100.00
63654;BME280;49809;47.418;19.080;2024-03-08T06:20:28;100921.50;;;4.23;100.00
63654;BME280;49809;47.418;19.080;2024-03-08T06:23:37;100915.88;;;4.26;100.00
63654;BME280;49809;47.418;19.080;2024-03-08T06:27:03;100917.22;;;4.15;100.00
63654;BME280;49809;47.418;19.080;2024-03-08T06:30:15;100917.84;;;4.17;100.00
63654;BME280;49809;47.418;19.080;2024-03-08T06:33:18;100923.88;;;4.18;100.00
63654;BME280;49809;47.418;19.080;2024-03-08T06:36:44;100915.25;;;4.24;100.00
63654;BME280;49809;47.418;19.080;2024-03-08T06:39:55;100923.34;;;4.29;100.00
63654;BME280;49809;47.418;19.080;2024-03-08T06:42:58;100930.66;;;4.47;100.00
63654;BME280;49809;47.418;19.080;2024-03-08T06:46:03;100929.72;;;4.54;100.00
63654;BME280;49809;47.418;19.080;2024-03-08T06:49:07;100923.78;;;4.39;100.00
63654;BME280;49809;47.418;19.080;2024-03-08T06:52:11;100931.47;;;4.47;100.00
63654;BME280;49809;47.418;19.080;2024-03-08T06:55:16;100931.87;;;4.44;100.00
63654;BME280;49809;47.418;19.080;2024-03-08T06:58:20;100931.53;;;4.54;100.00
63654;BME280;49809;47.418;19.080;2024-03-08T07:01:23;100935.44;;;4.30;100.00
63654;BME280;49809;47.418;19.080;2024-03-08T07:04:26;100932.47;;;4.40;100.00
63654;BME280;49809;47.418;19.080;2024-03-08T07:07:32;100931.09;;;4.50;100.00
63654;BME280;49809;47.418;19.080;2024-03-08T07:10:56;100930.66;;;4.40;100.00
63654;BME280;49809;47.418;19.080;2024-03-08T07:14:23;100931.13;;;4.57;100.00
63654;BME280;49809;47.418;19.080;2024-03-08T07:17:29;100940.12;;;4.41;100.00
63654;BME280;49809;47.418;19.080;2024-03-08T07:20:37;100932.78;;;4.64;100.00
63654;BME280;49809;47.418;19.080;2024-03-08T07:23:41;100945.72;;;4.79;100.00
63654;BME280;49809;47.418;19.080;2024-03-08T07:27:04;100941.22;;;4.60;100.00
63654;BME280;49809;47.418;19.080;2024-03-08T07:30:08;100941.84;;;4.68;100.00
63654;BME280;49809;47.418;19.080;2024-03-08T07:33:13;100947.31;;;4.73;100.00
63654;BME280;49809;47.418;19.080;2024-03-08T07:36:17;100944.88;;;4.72;100.00
63654;BME280;49809;47.418;19.080;2024-03-08T07:39:41;100950.53;;;4.75;100.00
63654;BME280;49809;47.418;19.080;2024-03-08T07:42:44;100950.16;;;4.78;100.00
63654;BME280;49809;47.418;19.080;2024-03-08T07:45:48;100954.81;;;4.83;100.00
63654;BME280;49809;47.418;19.080;2024-03-08T07:48:51;100951.56;;;4.81;100.00
63654;BME280;49809;47.418;19.080;2024-03-08T07:51:57;100957.97;;;4.65;100.00
63654;BME280;49809;47.418;19.080;2024-03-08T07:55:00;100957.56;;;4.62;100.00
63654;BME280;49809;47.418;19.080;2024-03-08T07:58:04;100951.75;;;4.73;100.00
63654;BME280;49809;47.418;19.080;2024-03-08T08:01:18;100953.81;;;4.91;100.00
63654;BME280;49809;47.418;19.080;2024-03-08T08:04:22;100953.47;;;5.07;100.00
63654;BME280;49809;47.418;19.080;2024-03-08T08:07:28;100958.69;;;4.94;100.00
63654;BME280;49809;47.418;19.080;2024-03-08T08:10:32;100951.81;;;4.99;100.00
63654;BME280;49809;47.418;19.080;2024-03-08T08:13:35;100949.22;;;5.06;100.00
63654;BME280;49809;47.418;19.080;2024-03-08T08:16:39;100953.03;;;5.10;100.00
63654;BME280;49809;47.418;19.080;2024-03-08T08:19:45;100954.19;;;4.81;100.00
63654;BME280;49809;47.418;19.080;2024-03-08T08:22:49;100959.69;;;4.99;100.00
63654;BME280;49809;47.418;19.080;2024-03-08T08:26:00;100957.06;;;4.99;100.00
63654;BME280;49809;47.418;19.080;2024-03-08T08:29:07;100963.13;;;5.00;100.00
63654;BME280;49809;47.418;19.080;2024-03-08T08:32:22;100951.41;;;5.09;100.00
63654;BME280;49809;47.418;19.080;2024-03-08T08:35:26;100951.06;;;5.38;100.00
63654;BME280;49809;47.418;19.080;2024-03-08T08:38:29;100944.00;;;5.52;100.00
63654;BME280;49809;47.418;19.080;2024-03-08T08:41:58;100944.59;;;5.47;100.00
63654;BME280;49809;47.418;19.080;2024-03-08T08:45:08;100940.94;;;5.81;100.00
63654;BME280;49809;47.418;19.080;2024-03-08T08:48:21;100944.19;;;5.96;100.00
63654;BME280;49809;47.418;19.080;2024-03-08T08:51:26;100943.78;;;5.93;100.00
63654;BME280;49809;47.418;19.080;2024-03-08T08:54:51;100946.88;;;6.47;100.00
63654;BME280;49809;47.418;19.080;2024-03-08T08:57:58;100938.37;;;6.52;100.00
63654;BME280;49809;47.418;19.080;2024-03-08T09:01:04;100944.19;;;6.61;100.00
63654;BME280;49809;47.418;19.080;2024-03-08T09:04:07;100942.37;;;6.99;100.00
63654;BME280;49809;47.418;19.080;2024-03-08T09:07:14;100938.81;;;7.18;100.00
63654;BME280;49809;47.418;19.080;2024-03-08T09:10:18;100939.31;;;7.02;100.00
63654;BME280;49809;47.418;19.080;2024-03-08T09:13:22;100939.84;;;7.42;100.00
63654;BME280;49809;47.418;19.080;2024-03-08T09:17:00;100930.62;;;7.26;100.00
63654;BME280;49809;47.418;19.080;2024-03-08T09:20:04;100945.69;;;7.19;100.00
63654;BME280;49809;47.418;19.080;2024-03-08T09:23:09;100936.94;;;7.25;100.00
63654;BME280;49809;47.418;19.080;2024-03-08T09:26:12;100930.81;;;7.31;100.00
63654;BME280;49809;47.418;19.080;2024-03-08T09:29:19;100928.34;;;7.36;100.00
63654;BME280;49809;47.418;19.080;2024-03-08T09:32:22;100935.06;;;7.32;100.00
63654;BME280;49809;47.418;19.080;2024-03-08T09:35:25;100926.75;;;7.04;100.00
63654;BME280;49809;47.418;19.080;2024-03-08T09:38:29;100929.84;;;7.26;100.00
63654;BME280;49809;47.418;19.080;2024-03-08T09:41:31;100941.66;;;7.41;100.00
63654;BME280;49809;47.418;19.080;2024-03-08T09:44:36;100940.81;;;7.48;100.00
63654;BME280;49809;47.418;19.080;2024-03-08T09:47:42;100939.34;;;7.52;100.00
63654;BME280;49809;47.418;19.080;2024-03-08T09:50:47;100941.50;;;7.61;100.00
63654;BME280;49809;47.418;19.080;2024-03-08T09:53:51;100931.47;;;7.52;100.00
63654;BME280;49809;47.418;19.080;2024-03-08T09:56:54;100937.91;;;7.56;100.00
63654;BME280;49809;47.418;19.080;2024-03-08T10:00:18;100932.78;;;7.85;100.00
63654;BME280;49809;47.418;19.080;2024-03-08T10:03:26;100934.31;;;7.50;100.00
63654;BME280;49809;47.418;19.080;2024-03-08T10:06:29;100945.41;;;7.59;100.00
63654;BME280;49809;47.418;19.080;2024-03-08T10:09:33;100938.50;;;7.58;100.00
63654;BME280;49809;47.418;19.080;2024-03-08T10:12:38;100940.28;;;7.64;100.00
63654;BME280;49809;47.418;19.080;2024-03-08T10:15:42;100945.22;;;7.29;100.00
63654;BME280;49809;47.418;19.080;2024-03-08T10:18:45;100939.34;;;7.52;100.00
63654;BME280;49809;47.418;19.080;2024-03-08T10:21:51;100944.31;;;7.41;100.00
63654;BME280;49809;47.418;19.080;2024-03-08T10:25:00;100945.19;;;7.35;100.00
63654;BME280;49809;47.418;19.080;2024-03-08T10:28:05;100949.16;;;7.45;100.00
63654;BME280;49809;47.418;19.080;2024-03-08T10:31:09;100947.53;;;7.43;100.00
63654;BME280;49809;47.418;19.080;2024-03-08T10:34:13;100938.78;;;7.25;100.00
63654;BME280;49809;47.418;19.080;2024-03-08T10:37:21;100943.44;;;7.23;100.00
63654;BME280;49809;47.418;19.080;2024-03-08T10:40:29;100936.81;;;7.14;100.00
63654;BME280;49809;47.418;19.080;2024-03-08T10:47:23;100946.00;;;6.98;100.00
63654;BME280;49809;47.418;19.080;2024-03-08T10:50:29;100939.78;;;6.92;100.00
63654;BME280;49809;47.418;19.080;2024-03-08T10:53:54;100941.16;;;7.02;100.00
63654;BME280;49809;47.418;19.080;2024-03-08T10:57:18;100938.69;;;7.07;100.00
63654;BME280;49809;47.418;19.080;2024-03-08T11:00:29;100936.94;;;7.25;100.00
63654;BME280;49809;47.418;19.080;2024-03-08T11:06:51;100934.84;;;7.59;100.00
63654;BME280;49809;47.418;19.080;2024-03-08T11:09:57;100925.53;;;7.81;99.82
63654;BME280;49809;47.418;19.080;2024-03-08T11:13:00;100919.53;;;7.92;97.46
63654;BME280;49809;47.418;19.080;2024-03-08T11:16:10;100919.75;;;7.91;98.36
63654;BME280;49809;47.418;19.080;2024-03-08T11:22:28;100925.25;;;8.25;97.93
63654;BME280;49809;47.418;19.080;2024-03-08T11:25:40;100920.16;;;8.79;95.88
63654;BME280;49809;47.418;19.080;2024-03-08T11:28:45;100909.81;;;9.30;93.00
63654;BME280;49809;47.418;19.080;2024-03-08T11:31:51;100906.06;;;9.84;90.63
63654;BME280;49809;47.418;19.080;2024-03-08T11:35:22;100902.06;;;10.45;84.52
63654;BME280;49809;47.418;19.080;2024-03-08T11:38:29;100901.87;;;10.63;82.71
63654;BME280;49809;47.418;19.080;2024-03-08T11:41:33;100894.50;;;10.65;82.67
63654;BME280;49809;47.418;19.080;2024-03-08T11:44:37;100895.38;;;10.42;81.10
63654;BME280;49809;47.418;19.080;2024-03-08T11:47:42;100891.22;;;10.46;82.14
63654;BME280;49809;47.418;19.080;2024-03-08T11:50:59;100887.50;;;10.31;81.07
63654;BME280;49809;47.418;19.080;2024-03-08T11:54:02;100884.25;;;9.66;84.58
63654;BME280;49809;47.418;19.080;2024-03-08T11:57:06;100883.28;;;9.83;83.89
63654;BME280;49809;47.418;19.080;2024-03-08T12:04:58;100889.13;;;9.15;87.28
63654;BME280;49809;47.418;19.080;2024-03-08T12:08:04;100885.47;;;9.16;86.86
63654;BME280;49809;47.418;19.080;2024-03-08T12:11:17;100882.69;;;9.00;87.68
63654;BME280;49809;47.418;19.080;2024-03-08T12:14:26;100887.25;;;8.93;87.28
63654;BME280;49809;47.418;19.080;2024-03-08T12:17:38;100886.31;;;8.87;87.60
63654;BME280;49809;47.418;19.080;2024-03-08T12:21:09;100885.50;;;8.87;88.87
63654;BME280;49809;47.418;19.080;2024-03-08T12:24:25;100880.69;;;8.84;88.02
63654;BME280;49809;47.418;19.080;2024-03-08T12:27:30;100877.56;;;8.45;89.95
63654;BME280;49809;47.418;19.080;2024-03-08T12:30:45;100874.97;;;8.57;89.75
63654;BME280;49809;47.418;19.080;2024-03-08T12:34:08;100869.44;;;8.47;90.19
63654;BME280;49809;47.418;19.080;2024-03-08T12:37:12;100865.06;;;8.41;91.73
63654;BME280;49809;47.418;19.080;2024-03-08T12:40:16;100876.97;;;8.61;90.87
63654;BME280;49809;47.418;19.080;2024-03-08T12:43:21;100869.59;;;8.93;86.46
63654;BME280;49809;47.418;19.080;2024-03-08T12:46:26;100866.56;;;8.78;85.61
63654;BME280;49809;47.418;19.080;2024-03-08T12:49:31;100866.28;;;8.68;86.52
63654;BME280;49809;47.418;19.080;2024-03-08T12:53:01;100866.34;;;8.50;87.31
63654;BME280;49809;47.418;19.080;2024-03-08T12:56:34;100865.06;;;8.41;87.37
63654;BME280;49809;47.418;19.080;2024-03-08T13:00:00;100864.78;;;8.31;87.37
63654;BME280;49809;47.418;19.080;2024-03-08T13:03:06;100857.28;;;8.27;88.19
63654;BME280;49809;47.418;19.080;2024-03-08T13:06:36;100856.22;;;8.28;87.41
63654;BME280;49809;47.418;19.080;2024-03-08T13:09:44;100854.81;;;8.33;87.11
63654;BME280;49809;47.418;19.080;2024-03-08T13:12:50;100848.19;;;8.23;88.46
63654;BME280;49809;47.418;19.080;2024-03-08T13:15:58;100849.38;;;8.09;89.57
63654;BME280;49809;47.418;19.080;2024-03-08T13:19:24;100854.88;;;8.08;88.71
63654;BME280;49809;47.418;19.080;2024-03-08T13:22:53;100846.16;;;8.07;89.69
63654;BME280;49809;47.418;19.080;2024-03-08T13:26:27;100846.16;;;7.89;89.31
63654;BME280;49809;47.418;19.080;2024-03-08T13:29:38;100846.91;;;7.78;89.63
63654;BME280;49809;47.418;19.080;2024-03-08T13:32:55;100838.38;;;7.94;89.62
63654;BME280;49809;47.418;19.080;2024-03-08T13:37:04;100840.09;;;7.89;90.41
63654;BME280;49809;47.418;19.080;2024-03-08T13:40:44;100837.16;;;7.78;89.48
63654;BME280;49809;47.418;19.080;2024-03-08T13:44:30;100832.56;;;7.92;88.79
63654;BME280;49809;47.418;19.080;2024-03-08T13:47:59;100840.31;;;7.69;90.17
63654;BME280;49809;47.418;19.080;2024-03-08T13:51:36;100840.00;;;7.77;89.70
63654;BME280;49809;47.418;19.080;2024-03-08T13:55:18;100828.09;;;7.74;90.21
63654;BME280;49809;47.418;19.080;2024-03-08T13:59:01;100836.13;;;7.79;88.74
63654;BME280;49809;47.418;19.080;2024-03-08T14:02:34;100828.16;;;7.68;92.89
63654;BME280;49809;47.418;19.080;2024-03-08T14:06:09;100828.44;;;7.96;92.43
63654;BME280;49809;47.418;19.080;2024-03-08T14:09:30;100827.94;;;7.69;95.32
63654;BME280;49809;47.418;19.080;2024-03-08T14:12:35;100822.31;;;7.84;94.89
63654;BME280;49809;47.418;19.080;2024-03-08T14:15:40;100827.59;;;7.84;94.62
63654;BME280;49809;47.418;19.080;2024-03-08T14:18:56;100818.47;;;7.80;94.06
63654;BME280;49809;47.418;19.080;2024-03-08T14:22:00;100824.19;;;7.77;94.62
63654;BME280;49809;47.418;19.080;2024-03-08T14:25:09;100825.97;;;7.65;95.18
63654;BME280;49809;47.418;19.080;2024-03-08T14:28:55;100826.09;;;7.70;95.41
63654;BME280;49809;47.418;19.080;2024-03-08T14:32:05;100825.44;;;7.56;96.29
63654;BME280;49809;47.418;19.080;2024-03-08T14:35:40;100822.44;;;7.71;96.38
63654;BME280;49809;47.418;19.080;2024-03-08T14:39:08;100821.56;;;7.77;95.99
63654;BME280;49809;47.418;19.080;2024-03-08T14:42:15;100821.56;;;7.59;96.06
63654;BME280;49809;47.418;19.080;2024-03-08T14:45:37;100826.84;;;7.59;96.20
63654;BME280;49809;47.418;19.080;2024-03-08T14:48:40;100813.50;;;7.35;97.71
63654;BME280;49809;47.418;19.080;2024-03-08T14:51:51;100818.03;;;7.47;96.77
63654;BME280;49809;47.418;19.080;2024-03-08T14:54:56;100816.00;;;7.49;96.63
63654;BME280;49809;47.418;19.080;2024-03-08T14:58:22;100816.87;;;7.42;97.67
63654;BME280;49809;47.418;19.080;2024-03-08T15:01:28;100816.19;;;7.29;98.12
63654;BME280;49809;47.418;19.080;2024-03-08T15:04:45;100806.63;;;7.10;99.52
63654;BME280;49809;47.418;19.080;2024-03-08T15:07:50;100807.84;;;7.07;98.74
63654;BME280;49809;47.418;19.080;2024-03-08T15:10:57;100809.22;;;7.16;99.72
63654;BME280;49809;47.418;19.080;2024-03-08T15:14:03;100803.97;;;7.16;99.31
63654;BME280;49809;47.418;19.080;2024-03-08T15:17:10;100804.31;;;7.20;99.22
63654;BME280;49809;47.418;19.080;2024-03-08T15:20:26;100801.16;;;7.11;100.00
63654;BME280;49809;47.418;19.080;2024-03-08T15:23:38;100803.16;;;7.16;99.36
63654;BME280;49809;47.418;19.080;2024-03-08T15:26:52;100794.97;;;6.99;99.80
63654;BME280;49809;47.418;19.080;2024-03-08T15:30:00;100809.63;;;6.88;100.00
63654;BME280;49809;47.418;19.080;2024-03-08T15:33:08;100805.72;;;6.97;99.70
63654;BME280;49809;47.418;19.080;2024-03-08T15:36:16;100806.75;;;6.96;99.58
63654;BME280;49809;47.418;19.080;2024-03-08T15:39:22;100808.94;;;6.99;100.00
63654;BME280;49809;47.418;19.080;2024-03-08T15:42:28;100803.72;;;6.93;100.00
63654;BME280;49809;47.418;19.080;2024-03-08T15:45:34;100813.88;;;6.89;100.00
63654;BME280;49809;47.418;19.080;2024-03-08T15:49:27;100803.00;;;6.86;100.00
63654;BME280;49809;47.418;19.080;2024-03-08T15:52:51;100802.81;;;6.81;100.00
63654;BME280;49809;47.418;19.080;2024-03-08T15:55:59;100808.19;;;6.92;100.00
63654;BME280;49809;47.418;19.080;2024-03-08T15:59:27;100814.09;;;6.88;100.00
63654;BME280;49809;47.418;19.080;2024-03-08T16:02:34;100807.44;;;6.85;100.00
63654;BME280;49809;47.418;19.080;2024-03-08T16:05:38;100803.69;;;6.99;100.00
63654;BME280;49809;47.418;19.080;2024-03-08T16:08:44;100807.47;;;6.79;100.00
63654;BME280;49809;47.418;19.080;2024-03-08T16:11:52;100811.94;;;6.78;100.00
63654;BME280;49809;47.418;19.080;2024-03-08T16:14:58;100808.25;;;6.86;100.00
63654;BME280;49809;47.418;19.080;2024-03-08T16:18:09;100814.31;;;6.86;100.00
63654;BME280;49809;47.418;19.080;2024-03-08T16:21:21;100811.91;;;6.85;100.00
63654;BME280;49809;47.418;19.080;2024-03-08T16:24:27;100810.81;;;6.68;100.00
63654;BME280;49809;47.418;19.080;2024-03-08T16:27:32;100813.19;;;6.76;100.00
63654;BME280;49809;47.418;19.080;2024-03-08T16:30:45;100813.16;;;6.82;100.00
63654;BME280;49809;47.418;19.080;2024-03-08T16:33:54;100812.91;;;6.84;100.00
63654;BME280;49809;47.418;19.080;2024-03-08T16:36:59;100815.00;;;6.75;100.00
63654;BME280;49809;47.418;19.080;2024-03-08T16:40:07;100808.84;;;6.63;100.00
63654;BME280;49809;47.418;19.080;2024-03-08T16:43:19;100807.91;;;6.76;100.00
63654;BME280;49809;47.418;19.080;2024-03-08T16:46:23;100809.41;;;6.65;100.00
63654;BME280;49809;47.418;19.080;2024-03-08T16:49:35;100810.03;;;6.61;100.00